createdAt,value
2023-05-09T00:00:16.483Z,9.60
2023-05-09T00:02:46.610Z,9.93
2023-05-09T00:05:15.410Z,8.37
2023-05-09T00:07:43.507Z,9.50
2023-05-09T00:10:11.795Z,8.67
2023-05-09T00:12:39.884Z,9.17
2023-05-09T00:15:09.182Z,9.10
2023-05-09T00:17:38.498Z,9.30
2023-05-09T00:20:12.412Z,9.20
2023-05-09T00:22:41.262Z,10.80
2023-05-09T00:25:10.741Z,9.23
2023-05-09T00:27:38.999Z,9.33
2023-05-09T00:30:08.324Z,10.90
2023-05-09T00:32:36.850Z,10.63
2023-05-09T00:35:05.371Z,11.30
2023-05-09T00:37:34.783Z,11.87
2023-05-09T00:40:03.497Z,12.30
2023-05-09T00:42:31.441Z,16.43
2023-05-09T00:44:59.541Z,16.70
2023-05-09T00:47:28.838Z,20.43
2023-05-09T00:49:58.095Z,25.40
2023-05-09T00:52:26.887Z,22.53
2023-05-09T00:54:56.802Z,23.10
2023-05-09T00:57:24.898Z,25.20
2023-05-09T00:59:52.838Z,25.07
2023-05-09T01:02:21.863Z,25.13
2023-05-09T01:04:49.952Z,25.43
2023-05-09T01:07:23.821Z,24.00
2023-05-09T01:10:01.359Z,24.57
2023-05-09T01:12:38.216Z,25.53
2023-05-09T01:15:13.574Z,24.53
2023-05-09T01:17:53.544Z,26.40
2023-05-09T01:20:31.215Z,24.87
2023-05-09T01:23:09.589Z,25.80
2023-05-09T01:25:50.779Z,25.37
2023-05-09T01:28:35.633Z,24.33
2023-05-09T01:31:07.202Z,26.97
2023-05-09T01:33:39.401Z,24.67
2023-05-09T01:36:13.162Z,27.40
2023-05-09T01:38:43.276Z,26.00
2023-05-09T01:41:13.298Z,26.30
2023-05-09T01:43:42.111Z,24.07
2023-05-09T01:46:13.051Z,26.00
2023-05-09T01:48:43.126Z,25.43
2023-05-09T01:51:12.282Z,24.60
2023-05-09T01:53:42.725Z,24.83
2023-05-09T01:56:11.874Z,25.50
2023-05-09T01:58:41.305Z,24.00
2023-05-09T02:01:11.963Z,23.73
2023-05-09T02:03:41.164Z,22.67
2023-05-09T02:06:11.003Z,25.30
2023-05-09T02:08:39.539Z,26.90
2023-05-09T02:11:08.526Z,26.27
2023-05-09T02:13:38.309Z,25.67
2023-05-09T02:16:07.910Z,24.37
2023-05-09T02:18:38.605Z,24.60
2023-05-09T02:21:07.549Z,24.07
2023-05-09T02:23:36.034Z,23.97
2023-05-09T02:26:04.867Z,22.43
2023-05-09T02:28:33.375Z,23.50
2023-05-09T02:31:03.330Z,22.97
2023-05-09T02:33:32.274Z,23.37
2023-05-09T02:36:02.179Z,22.00
2023-05-09T02:38:30.297Z,20.90
2023-05-09T02:40:58.269Z,20.93
2023-05-09T02:43:28.191Z,21.30
2023-05-09T02:45:56.450Z,19.73
2023-05-09T02:48:24.404Z,21.23
2023-05-09T02:50:52.735Z,19.47
2023-05-09T02:53:22.077Z,18.47
2023-05-09T02:55:50.418Z,20.27
2023-05-09T02:58:18.395Z,22.03
2023-05-09T03:00:46.566Z,20.10
2023-05-09T03:03:18.039Z,22.63
2023-05-09T03:05:46.815Z,19.53
2023-05-09T03:08:14.836Z,22.23
2023-05-09T03:10:44.228Z,20.17
2023-05-09T03:13:12.242Z,18.70
2023-05-09T03:15:40.278Z,20.27
2023-05-09T03:18:10.008Z,21.10
2023-05-09T03:20:38.004Z,21.50
2023-05-09T03:23:05.958Z,21.47
2023-05-09T03:25:33.967Z,18.57
2023-05-09T03:28:03.378Z,19.27
2023-05-09T03:30:31.398Z,17.60
2023-05-09T03:32:59.998Z,17.60
2023-05-09T03:35:28.014Z,16.63
2023-05-09T03:37:56.727Z,16.47
2023-05-09T03:40:24.749Z,19.90
2023-05-09T03:43:05.722Z,18.57
2023-05-09T03:45:35.732Z,16.43
2023-05-09T03:48:05.295Z,19.07
2023-05-09T03:50:33.344Z,18.30
2023-05-09T03:53:01.393Z,16.87
2023-05-09T03:55:29.689Z,17.70
2023-05-09T03:57:57.690Z,17.97
2023-05-09T04:00:27.391Z,16.07
2023-05-09T04:03:05.136Z,17.10
2023-05-09T04:05:39.028Z,15.80
2023-05-09T04:08:09.396Z,15.40
2023-05-09T04:10:37.458Z,17.57
2023-05-09T04:13:05.943Z,15.00
2023-05-09T04:15:35.426Z,14.83
2023-05-09T04:18:03.490Z,16.40
2023-05-09T04:20:31.833Z,15.00
2023-05-09T04:23:00.029Z,14.70
2023-05-09T04:25:29.351Z,15.00
2023-05-09T04:27:57.726Z,14.53
2023-05-09T04:30:27.085Z,14.43
2023-05-09T04:32:57.003Z,15.10
2023-05-09T04:35:25.170Z,14.50
2023-05-09T04:37:55.607Z,14.73
2023-05-09T04:40:26.631Z,14.07
2023-05-09T04:42:59.661Z,16.87
2023-05-09T04:45:30.751Z,14.30
2023-05-09T04:48:01.604Z,14.53
2023-05-09T04:50:30.615Z,14.30
2023-05-09T04:52:58.563Z,13.30
2023-05-09T04:55:26.654Z,14.67
2023-05-09T04:57:56.402Z,14.80
2023-05-09T05:00:24.858Z,15.53
2023-05-09T05:02:52.970Z,15.47
2023-05-09T05:05:25.370Z,15.07
2023-05-09T05:07:55.167Z,16.40
2023-05-09T05:10:27.702Z,15.60
2023-05-09T05:13:03.672Z,15.17
2023-05-09T05:15:31.815Z,14.70
2023-05-09T05:18:00.579Z,15.50
2023-05-09T05:20:35.871Z,15.10
2023-05-09T05:23:04.080Z,16.33
2023-05-09T05:25:32.281Z,15.40
2023-05-09T05:28:01.993Z,13.80
2023-05-09T05:30:31.122Z,14.93
2023-05-09T05:33:00.877Z,15.30
2023-05-09T05:35:29.322Z,15.17
2023-05-09T05:37:59.807Z,14.13
2023-05-09T05:40:27.879Z,15.30
2023-05-09T05:42:56.693Z,14.17
2023-05-09T05:45:25.673Z,16.20
2023-05-09T05:47:57.131Z,15.53
2023-05-09T05:50:25.824Z,14.80
2023-05-09T05:52:55.119Z,15.47
2023-05-09T05:55:25.274Z,14.87
2023-05-09T05:57:53.459Z,15.33
2023-05-09T06:00:21.808Z,16.60
2023-05-09T06:02:56.514Z,14.80
2023-05-09T06:05:34.980Z,15.60
2023-05-09T06:08:02.987Z,14.80
2023-05-09T06:10:34.534Z,14.67
2023-05-09T06:13:02.548Z,14.87
2023-05-09T06:15:30.759Z,14.70
2023-05-09T06:17:58.916Z,16.90
2023-05-09T06:20:27.228Z,16.87
2023-05-09T06:22:55.355Z,16.20
2023-05-09T06:25:23.346Z,16.40
2023-05-09T06:27:53.144Z,15.87
2023-05-09T06:32:52.171Z,16.40
2023-05-09T06:35:20.273Z,17.60
2023-05-09T06:37:49.039Z,15.77
2023-05-09T06:40:17.534Z,15.70
2023-05-09T06:42:45.777Z,14.20
2023-05-09T06:45:15.310Z,16.73
2023-05-09T06:47:43.631Z,15.63
2023-05-09T06:50:11.936Z,16.53
2023-05-09T06:52:39.899Z,17.07
2023-05-09T06:55:09.600Z,15.13
2023-05-09T06:57:37.878Z,15.53
2023-05-09T07:00:07.659Z,16.90
2023-05-09T07:02:37.087Z,16.33
2023-05-09T07:05:05.625Z,16.70
2023-05-09T07:07:33.585Z,17.23
2023-05-09T07:10:11.440Z,18.43
2023-05-09T07:12:40.618Z,16.77
2023-05-09T07:15:10.098Z,16.23
2023-05-09T07:17:39.681Z,17.80
2023-05-09T07:20:08.821Z,15.80
2023-05-09T07:22:37.756Z,18.90
2023-05-09T07:25:09.866Z,16.87
2023-05-09T07:27:38.266Z,16.07
2023-05-09T07:30:07.567Z,17.20
2023-05-09T07:32:35.822Z,15.63
2023-05-09T07:35:05.741Z,16.43
2023-05-09T07:37:33.748Z,16.50
2023-05-09T07:40:01.754Z,15.17
2023-05-09T07:42:30.300Z,14.03
2023-05-09T07:44:59.068Z,11.97
2023-05-09T07:47:27.227Z,12.13
2023-05-09T07:49:55.287Z,10.90
2023-05-09T07:52:24.711Z,12.20
2023-05-09T07:54:52.691Z,11.40
2023-05-09T07:57:20.766Z,10.57
2023-05-09T07:59:48.812Z,10.20
2023-05-09T08:02:16.858Z,10.50
2023-05-09T08:04:48.581Z,9.43
2023-05-09T08:07:16.802Z,9.37
2023-05-09T08:09:46.182Z,8.50
2023-05-09T08:12:14.260Z,9.30
2023-05-09T08:14:42.473Z,9.00
2023-05-09T08:17:10.754Z,9.83
2023-05-09T08:19:38.758Z,10.23
2023-05-09T08:22:06.761Z,7.80
2023-05-09T08:24:34.736Z,8.07
2023-05-09T08:27:04.081Z,9.27
2023-05-09T08:29:32.063Z,8.23
2023-05-09T08:32:00.069Z,6.77
2023-05-09T08:34:28.076Z,7.43
2023-05-09T08:36:56.026Z,8.93
2023-05-09T08:39:24.152Z,8.23
2023-05-09T08:41:52.893Z,7.37
2023-05-09T08:44:23.460Z,8.60
2023-05-09T08:46:56.162Z,6.57
2023-05-09T08:49:25.150Z,7.27
2023-05-09T08:51:53.535Z,7.57
2023-05-09T08:54:22.976Z,7.73
2023-05-09T08:56:51.567Z,6.70
2023-05-09T08:59:20.022Z,6.30
2023-05-09T09:01:49.661Z,6.97
2023-05-09T09:04:17.868Z,5.80
2023-05-09T09:06:46.327Z,6.27
2023-05-09T09:09:16.223Z,7.23
2023-05-09T09:11:44.622Z,6.10
2023-05-09T09:14:14.557Z,5.20
2023-05-09T09:16:44.581Z,5.77
2023-05-09T09:19:18.642Z,5.73
2023-05-09T09:21:48.055Z,5.50
2023-05-09T09:24:18.964Z,5.10
2023-05-09T09:26:48.537Z,5.80
2023-05-09T09:32:05.259Z,5.60
2023-05-09T09:34:34.663Z,5.73
2023-05-09T09:37:02.707Z,4.40
2023-05-09T09:39:30.669Z,5.03
2023-05-09T09:42:10.425Z,5.60
2023-05-09T09:44:38.599Z,5.20
2023-05-09T09:47:11.420Z,4.60
2023-05-09T09:49:47.715Z,5.97
2023-05-09T09:52:24.979Z,4.83
2023-05-09T09:54:55.757Z,4.97
2023-05-09T09:57:37.058Z,5.30
2023-05-09T10:00:06.021Z,4.83
2023-05-09T10:02:34.167Z,5.43
2023-05-09T10:05:09.591Z,6.10
2023-05-09T10:07:37.589Z,5.50
2023-05-09T10:10:06.826Z,5.13
2023-05-09T10:12:37.502Z,5.37
2023-05-09T10:15:08.014Z,5.23
2023-05-09T10:17:36.516Z,5.03
2023-05-09T10:20:08.716Z,4.60
2023-05-09T10:22:40.127Z,5.40
2023-05-09T10:25:15.651Z,4.20
2023-05-09T10:27:47.045Z,3.70
2023-05-09T10:30:19.129Z,3.70
2023-05-09T10:32:53.110Z,4.40
2023-05-09T10:35:27.666Z,4.50
2023-05-09T10:37:57.877Z,3.67
2023-05-09T10:40:26.885Z,3.37
2023-05-09T10:42:54.860Z,3.43
2023-05-09T10:45:23.642Z,3.10
2023-05-09T10:47:53.862Z,3.50
2023-05-09T10:50:23.752Z,3.40
2023-05-09T10:53:08.741Z,3.67
2023-05-09T10:55:49.585Z,3.33
2023-05-09T10:58:22.703Z,3.87
2023-05-09T11:00:51.578Z,3.73
2023-05-09T11:03:20.177Z,3.37
2023-05-09T11:05:51.950Z,3.70
2023-05-09T11:08:21.848Z,3.10
2023-05-09T11:10:50.211Z,3.17
2023-05-09T11:13:23.494Z,3.70
2023-05-09T11:16:04.330Z,3.80
2023-05-09T11:18:33.625Z,4.47
2023-05-09T11:21:09.732Z,3.53
2023-05-09T11:23:39.302Z,4.23
2023-05-09T11:26:09.065Z,3.70
2023-05-09T11:28:38.585Z,4.07
2023-05-09T11:31:10.948Z,3.47
2023-05-09T11:33:40.320Z,3.40
2023-05-09T11:36:20.724Z,4.40
2023-05-09T11:38:49.312Z,3.53
2023-05-09T11:41:17.428Z,4.17
2023-05-09T11:43:45.659Z,3.70
2023-05-09T11:46:13.751Z,3.40
2023-05-09T11:48:42.499Z,4.30
2023-05-09T11:51:19.102Z,3.70
2023-05-09T11:53:50.463Z,4.40
2023-05-09T11:56:18.959Z,4.23
2023-05-09T11:58:47.167Z,4.07
2023-05-09T12:01:15.178Z,3.50
2023-05-09T12:03:45.110Z,3.73
2023-05-09T12:06:17.429Z,4.07
2023-05-09T12:08:47.502Z,4.67
2023-05-09T12:11:18.697Z,4.67
2023-05-09T12:13:48.306Z,4.07
2023-05-09T12:16:17.248Z,4.10
2023-05-09T12:18:47.048Z,4.43
2023-05-09T12:21:15.621Z,4.60
2023-05-09T12:23:43.709Z,4.87
2023-05-09T12:26:13.382Z,5.13
2023-05-09T12:28:42.318Z,5.30
2023-05-09T12:31:10.595Z,5.53
2023-05-09T12:33:39.538Z,6.23
2023-05-09T12:36:10.985Z,5.40
2023-05-09T12:38:39.175Z,6.20
2023-05-09T12:41:18.246Z,5.57
2023-05-09T12:43:58.284Z,6.33
2023-05-09T12:46:26.403Z,6.40
2023-05-09T12:48:55.061Z,5.60
2023-05-09T12:51:23.585Z,6.63
2023-05-09T12:53:52.563Z,6.70
2023-05-09T12:56:22.867Z,5.93
2023-05-09T12:58:52.311Z,6.17
2023-05-09T13:01:23.564Z,6.77
2023-05-09T13:04:02.614Z,6.60
2023-05-09T13:06:30.721Z,7.03
2023-05-09T13:09:00.223Z,6.73
2023-05-09T13:11:28.909Z,5.77
2023-05-09T13:13:56.991Z,6.50
2023-05-09T13:16:26.841Z,5.73
2023-05-09T13:18:54.879Z,5.60
2023-05-09T13:21:26.566Z,5.50
2023-05-09T13:23:54.799Z,5.73
2023-05-09T13:26:23.242Z,5.50
2023-05-09T13:28:51.424Z,5.77
2023-05-09T13:31:19.716Z,5.83
2023-05-09T13:33:51.552Z,4.97
2023-05-09T13:36:20.085Z,5.80
2023-05-09T13:38:48.159Z,4.93
2023-05-09T13:41:20.113Z,4.93
2023-05-09T13:43:48.473Z,5.40
2023-05-09T13:46:16.776Z,4.73
2023-05-09T13:48:44.865Z,5.10
2023-05-09T13:51:14.491Z,4.60
2023-05-09T13:53:42.466Z,3.97
2023-05-09T13:56:10.661Z,4.40
2023-05-09T13:58:38.634Z,3.87
2023-05-09T14:01:07.345Z,4.00
2023-05-09T14:03:35.796Z,3.37
2023-05-09T14:06:04.228Z,2.60
2023-05-09T14:08:33.577Z,3.30
2023-05-09T14:11:02.795Z,2.57
2023-05-09T14:13:31.861Z,2.13
2023-05-09T14:16:00.089Z,2.10
2023-05-09T14:18:28.210Z,2.80
2023-05-09T14:20:56.450Z,2.80
2023-05-09T14:23:24.425Z,2.43
2023-05-09T14:25:53.778Z,2.90
2023-05-09T14:28:21.906Z,2.40
2023-05-09T14:30:49.907Z,2.40
2023-05-09T14:33:17.918Z,2.30
2023-05-09T14:35:45.856Z,2.40
2023-05-09T14:38:13.829Z,2.10
2023-05-09T14:40:41.871Z,2.00
2023-05-09T14:43:11.221Z,2.20
2023-05-09T14:45:39.280Z,2.37
2023-05-09T14:48:07.451Z,2.50
2023-05-09T14:50:35.535Z,2.60
2023-05-09T14:53:03.787Z,2.57
2023-05-09T14:55:32.486Z,3.30
2023-05-09T14:58:00.551Z,3.20
2023-05-09T15:00:30.368Z,3.20
2023-05-09T15:02:58.485Z,4.00
2023-05-09T15:05:26.489Z,3.80
2023-05-09T15:07:54.640Z,4.30
2023-05-09T15:10:22.742Z,4.67
2023-05-09T15:12:50.788Z,4.73
2023-05-09T15:15:20.508Z,4.70
2023-05-09T15:17:49.954Z,3.77
2023-05-09T15:20:18.561Z,4.50
2023-05-09T15:22:47.569Z,4.90
2023-05-09T15:25:16.253Z,4.03
2023-05-09T15:27:44.454Z,4.53
2023-05-09T15:30:13.510Z,4.17
2023-05-09T15:32:41.744Z,4.63
2023-05-09T15:35:11.375Z,4.30
2023-05-09T15:37:39.477Z,3.20
2023-05-09T15:40:09.166Z,2.70
2023-05-09T15:42:37.255Z,2.87
2023-05-09T15:45:05.913Z,2.00
2023-05-09T15:47:34.017Z,1.73
2023-05-09T15:50:02.045Z,2.00
2023-05-09T15:52:31.572Z,2.03
2023-05-09T15:54:59.837Z,1.33
2023-05-09T15:57:27.855Z,1.50
2023-05-09T15:59:56.017Z,1.20
2023-05-09T16:02:24.329Z,1.27
2023-05-09T16:04:52.510Z,1.40
2023-05-09T16:07:20.881Z,1.70
2023-05-09T16:09:50.500Z,1.20
2023-05-09T16:12:18.477Z,1.20
2023-05-09T16:14:46.410Z,1.20
2023-05-09T16:17:14.425Z,1.27
2023-05-09T16:19:42.378Z,1.10
2023-05-09T16:22:10.414Z,1.30
2023-05-09T16:24:38.484Z,1.00
2023-05-09T16:27:07.799Z,1.00
2023-05-09T16:29:35.778Z,1.53
2023-05-09T16:32:03.899Z,1.20
2023-05-09T16:34:32.064Z,1.23
2023-05-09T16:37:00.143Z,1.00
2023-05-09T16:39:28.324Z,1.60
2023-05-09T16:41:56.624Z,1.53
2023-05-09T16:44:26.355Z,1.13
2023-05-09T16:46:54.393Z,1.20
2023-05-09T16:49:22.478Z,1.20
2023-05-09T16:51:50.437Z,1.20
2023-05-09T16:54:18.353Z,1.30
2023-05-09T16:56:46.377Z,1.67
2023-05-09T16:59:14.547Z,1.33
2023-05-09T17:01:43.920Z,1.23
2023-05-09T17:04:11.925Z,1.40
2023-05-09T17:06:40.008Z,1.70
2023-05-09T17:09:08.004Z,1.90
2023-05-09T17:11:35.955Z,1.87
2023-05-09T17:14:04.174Z,1.33
2023-05-09T17:16:32.253Z,1.60
2023-05-09T17:19:01.634Z,1.50
2023-05-09T17:21:29.790Z,2.33
2023-05-09T17:23:57.729Z,2.30
2023-05-09T17:26:25.820Z,1.90
2023-05-09T17:28:53.933Z,1.33
2023-05-09T17:31:22.750Z,1.77
2023-05-09T17:33:50.817Z,1.57
2023-05-09T17:36:20.193Z,1.63
2023-05-09T17:38:48.184Z,1.60
2023-05-09T17:41:16.140Z,1.77
2023-05-09T17:43:45.172Z,1.83
2023-05-09T17:46:14.723Z,1.80
2023-05-09T17:48:43.008Z,2.20
2023-05-09T17:51:11.203Z,2.77
2023-05-09T17:53:40.531Z,2.20
2023-05-09T17:56:08.503Z,2.40
2023-05-09T17:58:36.530Z,2.57
2023-05-09T18:01:05.408Z,2.17
2023-05-09T18:03:33.594Z,2.20
2023-05-09T18:06:01.783Z,2.80
2023-05-09T18:08:30.022Z,2.27
2023-05-09T18:10:59.401Z,2.37
2023-05-09T18:13:27.403Z,3.00
2023-05-09T18:15:59.508Z,2.67
2023-05-09T18:18:28.760Z,2.70
2023-05-09T18:20:56.849Z,2.80
2023-05-09T18:23:25.469Z,3.43
2023-05-09T18:25:53.991Z,3.13
2023-05-09T18:28:25.579Z,2.70
2023-05-09T18:30:54.492Z,2.40
2023-05-09T18:33:24.200Z,2.70
2023-05-09T18:35:53.359Z,3.10
2023-05-09T18:38:21.379Z,3.17
2023-05-09T18:40:51.602Z,2.53
2023-05-09T18:43:20.810Z,2.83
2023-05-09T18:45:50.238Z,2.50
2023-05-09T18:48:18.272Z,3.10
2023-05-09T18:50:47.127Z,1.60
2023-05-09T18:53:15.108Z,1.50
2023-05-09T18:55:43.277Z,1.70
2023-05-09T18:58:11.448Z,1.43
2023-05-09T19:00:40.095Z,3.27
2023-05-09T19:03:09.917Z,2.43
2023-05-09T19:05:38.114Z,3.90
2023-05-09T19:08:06.732Z,3.40
2023-05-09T19:10:37.874Z,3.23
2023-05-09T19:13:06.109Z,2.07
2023-05-09T19:15:34.538Z,6.17
2023-05-09T19:18:03.095Z,5.17
2023-05-09T19:20:32.522Z,2.27
2023-05-09T19:23:01.530Z,3.23
2023-05-09T19:25:30.399Z,1.63
2023-05-09T19:27:58.418Z,1.70
2023-05-09T19:30:26.420Z,2.17
2023-05-09T19:32:54.644Z,2.60
2023-05-09T19:35:23.370Z,3.37
2023-05-09T19:37:52.760Z,1.97
2023-05-09T19:40:20.832Z,2.10
2023-05-09T19:42:48.906Z,2.37
2023-05-09T19:45:17.089Z,3.33
2023-05-09T19:47:45.112Z,3.20
2023-05-09T19:50:13.213Z,2.33
2023-05-09T19:52:41.607Z,2.60
2023-05-09T19:55:11.604Z,3.00
2023-05-09T19:57:39.604Z,3.13
2023-05-09T20:00:08.862Z,2.33
2023-05-09T20:02:36.812Z,2.93
2023-05-09T20:05:05.114Z,3.90
2023-05-09T20:07:33.122Z,3.10
2023-05-09T20:10:01.079Z,3.37
2023-05-09T20:12:31.517Z,4.37
2023-05-09T20:14:59.516Z,7.27
2023-05-09T20:17:27.688Z,3.23
2023-05-09T20:19:56.213Z,3.40
2023-05-09T20:22:24.239Z,3.40
2023-05-09T20:24:52.237Z,8.20
2023-05-09T20:27:20.307Z,5.00
2023-05-09T20:29:49.685Z,4.40
2023-05-09T20:32:17.699Z,5.20
2023-05-09T20:34:45.703Z,3.60
2023-05-09T20:37:13.680Z,3.47
2023-05-09T20:39:41.641Z,3.50
2023-05-09T20:42:09.554Z,3.17
2023-05-09T20:44:39.248Z,2.93
2023-05-09T20:47:08.576Z,2.97
2023-05-09T20:49:36.528Z,5.50
2023-05-09T20:52:04.918Z,4.47
2023-05-09T20:54:32.993Z,3.63
2023-05-09T20:57:00.997Z,3.30
2023-05-09T20:59:29.138Z,3.97
2023-05-09T21:01:57.261Z,3.23
2023-05-09T21:04:26.872Z,3.30
2023-05-09T21:06:54.963Z,3.93
2023-05-09T21:09:22.956Z,3.60
2023-05-09T21:11:50.884Z,4.10
2023-05-09T21:14:18.783Z,4.03
2023-05-09T21:16:46.940Z,4.63
2023-05-09T21:19:14.900Z,4.20
2023-05-09T21:21:44.231Z,5.50
2023-05-09T21:24:12.164Z,6.43
2023-05-09T21:26:40.329Z,7.60
2023-05-09T21:29:09.048Z,7.50
2023-05-09T21:31:37.153Z,7.90
2023-05-09T21:34:09.790Z,6.70
2023-05-09T21:36:38.572Z,6.00
2023-05-09T21:39:09.371Z,8.30
2023-05-09T21:41:38.290Z,8.13
2023-05-09T21:44:07.278Z,6.70
2023-05-09T21:46:36.277Z,8.83
2023-05-09T21:49:04.652Z,8.50
2023-05-09T21:51:33.381Z,9.90
2023-05-09T21:54:01.799Z,9.70
2023-05-09T21:56:31.164Z,9.83
2023-05-09T21:58:59.086Z,10.60
2023-05-09T22:01:27.066Z,9.30
2023-05-09T22:03:55.159Z,8.70
2023-05-09T22:06:23.195Z,9.53
2023-05-09T22:08:51.623Z,8.47
2023-05-09T22:11:19.601Z,8.87
2023-05-09T22:13:48.934Z,9.53
2023-05-09T22:16:17.463Z,9.90
2023-05-09T22:18:45.462Z,9.63
2023-05-09T22:21:13.402Z,10.37
2023-05-09T22:23:41.363Z,9.10
2023-05-09T22:26:09.311Z,10.10
2023-05-09T22:28:37.870Z,9.37
2023-05-09T22:31:08.058Z,9.20
2023-05-09T22:33:36.115Z,9.50
2023-05-09T22:36:04.229Z,8.70
2023-05-09T22:38:32.241Z,8.97
2023-05-09T22:41:00.259Z,10.30
2023-05-09T22:43:33.881Z,9.60
2023-05-09T22:46:08.043Z,8.13
2023-05-09T22:48:36.088Z,10.67
2023-05-09T22:51:04.141Z,10.47
2023-05-09T22:53:32.644Z,10.90
2023-05-09T22:56:00.635Z,10.13
2023-05-09T22:58:28.566Z,10.90
2023-05-09T23:00:56.602Z,12.90
2023-05-09T23:03:26.216Z,10.13
2023-05-09T23:05:54.254Z,10.90
2023-05-09T23:08:22.237Z,9.40
2023-05-09T23:10:50.187Z,11.90
2023-05-09T23:13:18.478Z,13.43
2023-05-09T23:15:48.033Z,12.80
2023-05-09T23:18:16.039Z,10.33
2023-05-09T23:20:45.957Z,11.80
2023-05-09T23:23:13.915Z,12.70
2023-05-09T23:25:41.881Z,12.23
2023-05-09T23:28:09.861Z,11.40
2023-05-09T23:30:37.832Z,12.70
2023-05-09T23:33:05.889Z,11.23
2023-05-09T23:35:33.900Z,13.40
2023-05-09T23:38:04.316Z,11.13
2023-05-09T23:40:32.250Z,12.33
2023-05-09T23:43:00.240Z,12.10
2023-05-09T23:45:28.577Z,11.13
2023-05-09T23:47:57.110Z,12.10
2023-05-09T23:50:25.168Z,9.83
2023-05-09T23:52:53.120Z,10.97
2023-05-09T23:55:22.431Z,9.37
2023-05-09T23:57:50.385Z,9.00
